sensor_id;sensor_type;location;lat;lon;timestamp;P1;durP1;ratioP1;P2;durP2;ratioP2
67049;SDS011;53955;52.442;13.284;2022-12-08T00:01:15;7.10;;;4.17;;
67049;SDS011;53955;52.442;13.284;2022-12-08T00:03:43;7.77;;;3.97;;
67049;SDS011;53955;52.442;13.284;2022-12-08T00:06:12;8.53;;;3.90;;
67049;SDS011;53955;52.442;13.284;2022-12-08T00:09:03;5.87;;;3.50;;
67049;SDS011;53955;52.442;13.284;2022-12-08T00:11:48;5.53;;;3.37;;
67049;SDS011;53955;52.442;13.284;2022-12-08T00:14:19;7.70;;;3.63;;
67049;SDS011;53955;52.442;13.284;2022-12-08T00:16:50;8.67;;;4.00;;
67049;SDS011;53955;52.442;13.284;2022-12-08T00:19:17;7.57;;;3.77;;
67049;SDS011;53955;52.442;13.284;2022-12-08T00:21:44;7.60;;;4.00;;
67049;SDS011;53955;52.442;13.284;2022-12-08T00:24:10;8.30;;;3.80;;
67049;SDS011;53955;52.442;13.284;2022-12-08T00:26:37;6.73;;;4.00;;
67049;SDS011;53955;52.442;13.284;2022-12-08T00:29:04;9.67;;;3.80;;
67049;SDS011;53955;52.442;13.284;2022-12-08T00:31:31;9.73;;;4.27;;
67049;SDS011;53955;52.442;13.284;2022-12-08T00:33:59;8.07;;;3.97;;
67049;SDS011;53955;52.442;13.284;2022-12-08T00:36:26;9.13;;;4.50;;
67049;SDS011;53955;52.442;13.284;2022-12-08T00:38:53;7.57;;;3.87;;
67049;SDS011;53955;52.442;13.284;2022-12-08T00:41:20;7.43;;;4.27;;
67049;SDS011;53955;52.442;13.284;2022-12-08T00:44:08;7.50;;;4.60;;
67049;SDS011;53955;52.442;13.284;2022-12-08T00:46:37;9.27;;;4.43;;
67049;SDS011;53955;52.442;13.284;2022-12-08T00:49:05;10.47;;;4.47;;
67049;SDS011;53955;52.442;13.284;2022-12-08T00:51:32;7.60;;;4.27;;
67049;SDS011;53955;52.442;13.284;2022-12-08T00:53:59;8.23;;;3.77;;
67049;SDS011;53955;52.442;13.284;2022-12-08T00:56:25;9.20;;;4.17;;
67049;SDS011;53955;52.442;13.284;2022-12-08T00:58:52;6.87;;;3.90;;
67049;SDS011;53955;52.442;13.284;2022-12-08T01:01:19;6.90;;;3.90;;
67049;SDS011;53955;52.442;13.284;2022-12-08T01:03:46;8.13;;;4.13;;
67049;SDS011;53955;52.442;13.284;2022-12-08T01:06:14;6.53;;;3.93;;
67049;SDS011;53955;52.442;13.284;2022-12-08T01:08:40;6.67;;;3.77;;
67049;SDS011;53955;52.442;13.284;2022-12-08T01:11:08;8.57;;;4.43;;
67049;SDS011;53955;52.442;13.284;2022-12-08T01:13:36;5.97;;;3.57;;
67049;SDS011;53955;52.442;13.284;2022-12-08T01:16:03;7.13;;;4.13;;
67049;SDS011;53955;52.442;13.284;2022-12-08T01:18:30;8.93;;;3.70;;
67049;SDS011;53955;52.442;13.284;2022-12-08T01:21:00;6.03;;;3.30;;
67049;SDS011;53955;52.442;13.284;2022-12-08T01:23:29;5.37;;;3.57;;
67049;SDS011;53955;52.442;13.284;2022-12-08T01:25:59;5.77;;;3.87;;
67049;SDS011;53955;52.442;13.284;2022-12-08T01:28:27;7.27;;;4.43;;
67049;SDS011;53955;52.442;13.284;2022-12-08T01:30:53;8.87;;;3.93;;
67049;SDS011;53955;52.442;13.284;2022-12-08T01:33:20;8.20;;;3.93;;
67049;SDS011;53955;52.442;13.284;2022-12-08T01:35:47;8.83;;;4.20;;
67049;SDS011;53955;52.442;13.284;2022-12-08T01:38:13;6.07;;;3.80;;
67049;SDS011;53955;52.442;13.284;2022-12-08T01:40:41;9.40;;;4.57;;
67049;SDS011;53955;52.442;13.284;2022-12-08T01:43:08;7.13;;;4.37;;
67049;SDS011;53955;52.442;13.284;2022-12-08T01:45:39;6.37;;;3.70;;
67049;SDS011;53955;52.442;13.284;2022-12-08T01:48:10;8.23;;;4.47;;
67049;SDS011;53955;52.442;13.284;2022-12-08T01:50:41;8.37;;;5.10;;
67049;SDS011;53955;52.442;13.284;2022-12-08T01:53:09;8.13;;;5.47;;
67049;SDS011;53955;52.442;13.284;2022-12-08T01:55:40;8.33;;;4.90;;
67049;SDS011;53955;52.442;13.284;2022-12-08T01:58:10;11.60;;;5.20;;
67049;SDS011;53955;52.442;13.284;2022-12-08T02:00:40;6.50;;;4.20;;
67049;SDS011;53955;52.442;13.284;2022-12-08T02:03:08;7.30;;;4.47;;
67049;SDS011;53955;52.442;13.284;2022-12-08T02:05:39;8.13;;;4.67;;
67049;SDS011;53955;52.442;13.284;2022-12-08T02:08:07;9.37;;;5.10;;
67049;SDS011;53955;52.442;13.284;2022-12-08T02:10:37;10.90;;;4.60;;
67049;SDS011;53955;52.442;13.284;2022-12-08T02:13:07;7.97;;;4.70;;
67049;SDS011;53955;52.442;13.284;2022-12-08T02:15:37;9.60;;;4.67;;
67049;SDS011;53955;52.442;13.284;2022-12-08T02:18:16;8.07;;;4.33;;
67049;SDS011;53955;52.442;13.284;2022-12-08T02:20:53;8.93;;;4.80;;
67049;SDS011;53955;52.442;13.284;2022-12-08T02:23:27;9.40;;;4.77;;
67049;SDS011;53955;52.442;13.284;2022-12-08T02:26:11;7.10;;;4.30;;
67049;SDS011;53955;52.442;13.284;2022-12-08T02:29:12;8.57;;;4.87;;
67049;SDS011;53955;52.442;13.284;2022-12-08T02:32:09;7.33;;;4.40;;
67049;SDS011;53955;52.442;13.284;2022-12-08T02:34:48;8.50;;;4.83;;
67049;SDS011;53955;52.442;13.284;2022-12-08T02:37:22;7.13;;;4.70;;
67049;SDS011;53955;52.442;13.284;2022-12-08T02:39:56;9.90;;;4.90;;
67049;SDS011;53955;52.442;13.284;2022-12-08T02:42:28;6.67;;;3.93;;
67049;SDS011;53955;52.442;13.284;2022-12-08T02:45:01;6.67;;;4.13;;
67049;SDS011;53955;52.442;13.284;2022-12-08T02:50:01;9.10;;;3.90;;
67049;SDS011;53955;52.442;13.284;2022-12-08T02:52:39;7.50;;;4.10;;
67049;SDS011;53955;52.442;13.284;2022-12-08T02:55:08;6.13;;;3.97;;
67049;SDS011;53955;52.442;13.284;2022-12-08T02:57:42;6.07;;;3.97;;
67049;SDS011;53955;52.442;13.284;2022-12-08T03:00:19;6.60;;;3.43;;
67049;SDS011;53955;52.442;13.284;2022-12-08T03:02:49;7.00;;;3.80;;
67049;SDS011;53955;52.442;13.284;2022-12-08T03:05:35;7.20;;;3.20;;
67049;SDS011;53955;52.442;13.284;2022-12-08T03:08:18;7.33;;;3.57;;
67049;SDS011;53955;52.442;13.284;2022-12-08T03:10:50;7.03;;;3.40;;
67049;SDS011;53955;52.442;13.284;2022-12-08T03:13:21;5.83;;;3.60;;
67049;SDS011;53955;52.442;13.284;2022-12-08T03:15:50;6.00;;;3.30;;
67049;SDS011;53955;52.442;13.284;2022-12-08T03:18:19;5.90;;;3.50;;
67049;SDS011;53955;52.442;13.284;2022-12-08T03:20:54;6.83;;;3.30;;
67049;SDS011;53955;52.442;13.284;2022-12-08T03:23:21;5.40;;;3.13;;
67049;SDS011;53955;52.442;13.284;2022-12-08T03:25:50;5.93;;;3.43;;
67049;SDS011;53955;52.442;13.284;2022-12-08T03:28:24;6.27;;;3.60;;
67049;SDS011;53955;52.442;13.284;2022-12-08T03:30:51;6.13;;;3.57;;
67049;SDS011;53955;52.442;13.284;2022-12-08T03:33:23;7.43;;;4.23;;
67049;SDS011;53955;52.442;13.284;2022-12-08T03:35:54;6.40;;;3.60;;
67049;SDS011;53955;52.442;13.284;2022-12-08T03:38:23;6.30;;;3.70;;
67049;SDS011;53955;52.442;13.284;2022-12-08T03:40:50;8.40;;;4.70;;
67049;SDS011;53955;52.442;13.284;2022-12-08T03:43:30;5.17;;;3.90;;
67049;SDS011;53955;52.442;13.284;2022-12-08T03:45:57;7.03;;;4.43;;
67049;SDS011;53955;52.442;13.284;2022-12-08T03:48:24;9.30;;;4.90;;
67049;SDS011;53955;52.442;13.284;2022-12-08T03:50:50;8.27;;;5.00;;
67049;SDS011;53955;52.442;13.284;2022-12-08T03:53:18;7.00;;;5.03;;
67049;SDS011;53955;52.442;13.284;2022-12-08T03:55:45;9.17;;;5.30;;
67049;SDS011;53955;52.442;13.284;2022-12-08T03:58:11;10.83;;;5.17;;
67049;SDS011;53955;52.442;13.284;2022-12-08T04:00:38;10.33;;;5.77;;
67049;SDS011;53955;52.442;13.284;2022-12-08T04:03:04;11.00;;;6.03;;
67049;SDS011;53955;52.442;13.284;2022-12-08T04:05:31;9.83;;;5.63;;
67049;SDS011;53955;52.442;13.284;2022-12-08T04:07:57;9.50;;;5.80;;
67049;SDS011;53955;52.442;13.284;2022-12-08T04:10:26;8.93;;;5.73;;
67049;SDS011;53955;52.442;13.284;2022-12-08T04:12:53;10.53;;;6.20;;
67049;SDS011;53955;52.442;13.284;2022-12-08T04:15:21;10.80;;;6.17;;
67049;SDS011;53955;52.442;13.284;2022-12-08T04:17:47;12.33;;;5.93;;
67049;SDS011;53955;52.442;13.284;2022-12-08T04:20:14;9.77;;;6.10;;
67049;SDS011;53955;52.442;13.284;2022-12-08T04:22:40;11.73;;;6.63;;
67049;SDS011;53955;52.442;13.284;2022-12-08T04:25:07;13.90;;;6.83;;
67049;SDS011;53955;52.442;13.284;2022-12-08T04:27:35;11.83;;;7.03;;
67049;SDS011;53955;52.442;13.284;2022-12-08T04:30:02;12.33;;;7.17;;
67049;SDS011;53955;52.442;13.284;2022-12-08T04:32:29;10.43;;;6.53;;
67049;SDS011;53955;52.442;13.284;2022-12-08T04:34:55;13.30;;;7.90;;
67049;SDS011;53955;52.442;13.284;2022-12-08T04:37:22;8.80;;;5.33;;
67049;SDS011;53955;52.442;13.284;2022-12-08T04:39:48;13.97;;;7.67;;
67049;SDS011;53955;52.442;13.284;2022-12-08T04:42:15;15.23;;;8.33;;
67049;SDS011;53955;52.442;13.284;2022-12-08T04:44:43;13.60;;;7.17;;
67049;SDS011;53955;52.442;13.284;2022-12-08T04:47:09;12.27;;;6.77;;
67049;SDS011;53955;52.442;13.284;2022-12-08T04:49:36;12.77;;;7.47;;
67049;SDS011;53955;52.442;13.284;2022-12-08T04:52:03;13.10;;;8.03;;
67049;SDS011;53955;52.442;13.284;2022-12-08T04:54:29;11.67;;;6.87;;
67049;SDS011;53955;52.442;13.284;2022-12-08T04:56:56;11.97;;;7.13;;
67049;SDS011;53955;52.442;13.284;2022-12-08T04:59:22;11.10;;;6.70;;
67049;SDS011;53955;52.442;13.284;2022-12-08T05:01:50;14.53;;;7.50;;
67049;SDS011;53955;52.442;13.284;2022-12-08T05:04:17;15.37;;;8.00;;
67049;SDS011;53955;52.442;13.284;2022-12-08T05:06:43;15.43;;;8.30;;
67049;SDS011;53955;52.442;13.284;2022-12-08T05:09:10;12.87;;;7.63;;
67049;SDS011;53955;52.442;13.284;2022-12-08T05:11:37;16.47;;;8.67;;
67049;SDS011;53955;52.442;13.284;2022-12-08T05:14:07;12.20;;;7.60;;
67049;SDS011;53955;52.442;13.284;2022-12-08T05:16:33;13.57;;;7.93;;
67049;SDS011;53955;52.442;13.284;2022-12-08T05:19:03;15.43;;;7.47;;
67049;SDS011;53955;52.442;13.284;2022-12-08T05:21:30;15.60;;;7.97;;
67049;SDS011;53955;52.442;13.284;2022-12-08T05:23:56;16.60;;;8.27;;
67049;SDS011;53955;52.442;13.284;2022-12-08T05:26:23;14.70;;;8.60;;
67049;SDS011;53955;52.442;13.284;2022-12-08T05:28:49;14.00;;;7.30;;
67049;SDS011;53955;52.442;13.284;2022-12-08T05:31:16;17.87;;;7.33;;
67049;SDS011;53955;52.442;13.284;2022-12-08T05:33:43;12.67;;;7.87;;
67049;SDS011;53955;52.442;13.284;2022-12-08T05:36:12;15.37;;;7.17;;
67049;SDS011;53955;52.442;13.284;2022-12-08T05:38:40;12.73;;;7.43;;
67049;SDS011;53955;52.442;13.284;2022-12-08T05:41:08;12.87;;;7.77;;
67049;SDS011;53955;52.442;13.284;2022-12-08T05:43:35;13.00;;;7.50;;
67049;SDS011;53955;52.442;13.284;2022-12-08T05:46:02;14.07;;;7.73;;
67049;SDS011;53955;52.442;13.284;2022-12-08T05:48:28;16.30;;;7.80;;
67049;SDS011;53955;52.442;13.284;2022-12-08T05:50:55;13.90;;;7.47;;
67049;SDS011;53955;52.442;13.284;2022-12-08T05:53:23;13.50;;;7.30;;
67049;SDS011;53955;52.442;13.284;2022-12-08T05:55:49;16.27;;;7.70;;
67049;SDS011;53955;52.442;13.284;2022-12-08T05:58:17;12.07;;;7.20;;
67049;SDS011;53955;52.442;13.284;2022-12-08T06:00:45;15.07;;;7.70;;
67049;SDS011;53955;52.442;13.284;2022-12-08T06:03:13;15.07;;;7.40;;
67049;SDS011;53955;52.442;13.284;2022-12-08T06:05:42;11.20;;;7.23;;
67049;SDS011;53955;52.442;13.284;2022-12-08T06:08:10;15.20;;;8.40;;
67049;SDS011;53955;52.442;13.284;2022-12-08T06:10:38;13.47;;;7.57;;
67049;SDS011;53955;52.442;13.284;2022-12-08T06:13:05;16.23;;;8.40;;
67049;SDS011;53955;52.442;13.284;2022-12-08T06:15:32;14.13;;;7.80;;
67049;SDS011;53955;52.442;13.284;2022-12-08T06:17:59;12.50;;;7.47;;
67049;SDS011;53955;52.442;13.284;2022-12-08T06:20:25;14.47;;;7.47;;
67049;SDS011;53955;52.442;13.284;2022-12-08T06:22:52;14.90;;;8.07;;
67049;SDS011;53955;52.442;13.284;2022-12-08T06:25:19;16.67;;;8.60;;
67049;SDS011;53955;52.442;13.284;2022-12-08T06:27:47;17.60;;;8.10;;
67049;SDS011;53955;52.442;13.284;2022-12-08T06:30:14;15.17;;;7.77;;
67049;SDS011;53955;52.442;13.284;2022-12-08T06:32:41;13.73;;;7.73;;
67049;SDS011;53955;52.442;13.284;2022-12-08T06:35:08;13.47;;;8.13;;
67049;SDS011;53955;52.442;13.284;2022-12-08T06:37:35;13.77;;;7.43;;
67049;SDS011;53955;52.442;13.284;2022-12-08T06:40:02;16.00;;;7.77;;
67049;SDS011;53955;52.442;13.284;2022-12-08T06:42:28;14.73;;;7.77;;
67049;SDS011;53955;52.442;13.284;2022-12-08T06:45:12;14.17;;;8.07;;
67049;SDS011;53955;52.442;13.284;2022-12-08T06:47:40;12.53;;;7.37;;
67049;SDS011;53955;52.442;13.284;2022-12-08T06:50:07;15.13;;;8.07;;
67049;SDS011;53955;52.442;13.284;2022-12-08T06:52:35;12.53;;;7.03;;
67049;SDS011;53955;52.442;13.284;2022-12-08T06:55:02;13.50;;;7.50;;
67049;SDS011;53955;52.442;13.284;2022-12-08T06:57:29;15.40;;;7.47;;
67049;SDS011;53955;52.442;13.284;2022-12-08T06:59:56;15.10;;;8.07;;
67049;SDS011;53955;52.442;13.284;2022-12-08T07:02:24;15.13;;;8.37;;
67049;SDS011;53955;52.442;13.284;2022-12-08T07:04:50;14.40;;;7.63;;
67049;SDS011;53955;52.442;13.284;2022-12-08T07:07:17;14.60;;;7.90;;
67049;SDS011;53955;52.442;13.284;2022-12-08T07:09:43;14.90;;;8.67;;
67049;SDS011;53955;52.442;13.284;2022-12-08T07:12:10;13.67;;;7.93;;
67049;SDS011;53955;52.442;13.284;2022-12-08T07:14:36;15.23;;;7.83;;
67049;SDS011;53955;52.442;13.284;2022-12-08T07:17:03;13.37;;;7.87;;
67049;SDS011;53955;52.442;13.284;2022-12-08T07:19:31;14.53;;;7.17;;
67049;SDS011;53955;52.442;13.284;2022-12-08T07:21:57;16.40;;;7.90;;
67049;SDS011;53955;52.442;13.284;2022-12-08T07:24:24;14.83;;;7.77;;
67049;SDS011;53955;52.442;13.284;2022-12-08T07:26:51;12.03;;;7.60;;
67049;SDS011;53955;52.442;13.284;2022-12-08T07:29:17;13.33;;;7.70;;
67049;SDS011;53955;52.442;13.284;2022-12-08T07:31:44;13.80;;;8.47;;
67049;SDS011;53955;52.442;13.284;2022-12-08T07:34:10;13.77;;;7.87;;
67049;SDS011;53955;52.442;13.284;2022-12-08T07:36:39;14.77;;;8.17;;
67049;SDS011;53955;52.442;13.284;2022-12-08T07:39:06;17.17;;;8.63;;
67049;SDS011;53955;52.442;13.284;2022-12-08T07:41:32;17.50;;;8.33;;
67049;SDS011;53955;52.442;13.284;2022-12-08T07:43:59;14.17;;;7.97;;
67049;SDS011;53955;52.442;13.284;2022-12-08T07:46:26;17.67;;;7.77;;
67049;SDS011;53955;52.442;13.284;2022-12-08T07:48:53;14.67;;;7.47;;
67049;SDS011;53955;52.442;13.284;2022-12-08T07:51:21;15.27;;;7.47;;
67049;SDS011;53955;52.442;13.284;2022-12-08T07:53:50;18.87;;;8.23;;
67049;SDS011;53955;52.442;13.284;2022-12-08T07:56:17;16.13;;;8.17;;
67049;SDS011;53955;52.442;13.284;2022-12-08T07:58:43;14.80;;;8.07;;
67049;SDS011;53955;52.442;13.284;2022-12-08T08:01:17;14.87;;;8.00;;
67049;SDS011;53955;52.442;13.284;2022-12-08T08:03:45;13.60;;;8.23;;
67049;SDS011;53955;52.442;13.284;2022-12-08T08:06:12;13.77;;;7.70;;
67049;SDS011;53955;52.442;13.284;2022-12-08T08:08:39;15.53;;;8.43;;
67049;SDS011;53955;52.442;13.284;2022-12-08T08:11:07;13.47;;;6.60;;
67049;SDS011;53955;52.442;13.284;2022-12-08T08:13:34;14.30;;;7.13;;
67049;SDS011;53955;52.442;13.284;2022-12-08T08:16:01;13.70;;;7.93;;
67049;SDS011;53955;52.442;13.284;2022-12-08T08:18:29;15.60;;;7.73;;
67049;SDS011;53955;52.442;13.284;2022-12-08T08:20:55;14.93;;;7.30;;
67049;SDS011;53955;52.442;13.284;2022-12-08T08:23:22;16.63;;;8.27;;
67049;SDS011;53955;52.442;13.284;2022-12-08T08:25:48;17.00;;;8.30;;
67049;SDS011;53955;52.442;13.284;2022-12-08T08:28:16;18.77;;;7.80;;
67049;SDS011;53955;52.442;13.284;2022-12-08T08:30:44;16.93;;;8.90;;
67049;SDS011;53955;52.442;13.284;2022-12-08T08:33:11;13.87;;;7.73;;
67049;SDS011;53955;52.442;13.284;2022-12-08T08:35:37;14.87;;;7.80;;
67049;SDS011;53955;52.442;13.284;2022-12-08T08:38:04;14.47;;;8.03;;
67049;SDS011;53955;52.442;13.284;2022-12-08T08:40:31;15.43;;;8.30;;
67049;SDS011;53955;52.442;13.284;2022-12-08T08:42:59;13.63;;;7.90;;
67049;SDS011;53955;52.442;13.284;2022-12-08T08:45:27;15.53;;;9.10;;
67049;SDS011;53955;52.442;13.284;2022-12-08T08:47:54;14.90;;;7.67;;
67049;SDS011;53955;52.442;13.284;2022-12-08T08:50:20;13.13;;;7.80;;
67049;SDS011;53955;52.442;13.284;2022-12-08T08:52:47;18.67;;;8.60;;
67049;SDS011;53955;52.442;13.284;2022-12-08T08:55:15;16.23;;;8.20;;
67049;SDS011;53955;52.442;13.284;2022-12-08T08:57:41;14.47;;;8.47;;
67049;SDS011;53955;52.442;13.284;2022-12-08T09:00:09;16.73;;;8.57;;
67049;SDS011;53955;52.442;13.284;2022-12-08T09:02:37;16.70;;;8.27;;
67049;SDS011;53955;52.442;13.284;2022-12-08T09:05:04;15.87;;;8.43;;
67049;SDS011;53955;52.442;13.284;2022-12-08T09:07:31;20.37;;;9.03;;
67049;SDS011;53955;52.442;13.284;2022-12-08T09:09:58;15.60;;;8.73;;
67049;SDS011;53955;52.442;13.284;2022-12-08T09:12:25;17.90;;;8.57;;
67049;SDS011;53955;52.442;13.284;2022-12-08T09:14:51;14.57;;;7.97;;
67049;SDS011;53955;52.442;13.284;2022-12-08T09:17:18;15.73;;;8.63;;
67049;SDS011;53955;52.442;13.284;2022-12-08T09:19:46;20.30;;;8.50;;
67049;SDS011;53955;52.442;13.284;2022-12-08T09:22:13;16.23;;;8.40;;
67049;SDS011;53955;52.442;13.284;2022-12-08T09:24:40;16.33;;;8.67;;
67049;SDS011;53955;52.442;13.284;2022-12-08T09:27:07;17.43;;;8.17;;
67049;SDS011;53955;52.442;13.284;2022-12-08T09:29:33;17.47;;;9.20;;
67049;SDS011;53955;52.442;13.284;2022-12-08T09:32:00;14.10;;;8.33;;
67049;SDS011;53955;52.442;13.284;2022-12-08T09:34:26;16.10;;;8.33;;
67049;SDS011;53955;52.442;13.284;2022-12-08T09:36:54;14.10;;;8.80;;
67049;SDS011;53955;52.442;13.284;2022-12-08T09:39:21;15.40;;;8.47;;
67049;SDS011;53955;52.442;13.284;2022-12-08T09:41:48;19.53;;;8.87;;
67049;SDS011;53955;52.442;13.284;2022-12-08T09:44:32;18.17;;;8.93;;
67049;SDS011;53955;52.442;13.284;2022-12-08T09:47:12;17.30;;;9.10;;
67049;SDS011;53955;52.442;13.284;2022-12-08T09:49:43;15.33;;;8.77;;
67049;SDS011;53955;52.442;13.284;2022-12-08T09:52:17;18.03;;;8.83;;
67049;SDS011;53955;52.442;13.284;2022-12-08T09:54:47;15.57;;;8.43;;
67049;SDS011;53955;52.442;13.284;2022-12-08T09:57:14;15.50;;;9.00;;
67049;SDS011;53955;52.442;13.284;2022-12-08T09:59:46;15.70;;;8.03;;
67049;SDS011;53955;52.442;13.284;2022-12-08T10:02:19;16.13;;;8.30;;
67049;SDS011;53955;52.442;13.284;2022-12-08T10:04:48;16.30;;;8.73;;
67049;SDS011;53955;52.442;13.284;2022-12-08T10:07:17;14.90;;;8.97;;
67049;SDS011;53955;52.442;13.284;2022-12-08T10:09:49;16.10;;;8.93;;
67049;SDS011;53955;52.442;13.284;2022-12-08T10:12:24;15.33;;;8.70;;
67049;SDS011;53955;52.442;13.284;2022-12-08T10:14:55;17.37;;;7.90;;
67049;SDS011;53955;52.442;13.284;2022-12-08T10:17:30;14.40;;;7.27;;
67049;SDS011;53955;52.442;13.284;2022-12-08T10:20:10;16.07;;;8.37;;
67049;SDS011;53955;52.442;13.284;2022-12-08T10:22:41;17.23;;;8.17;;
67049;SDS011;53955;52.442;13.284;2022-12-08T10:25:10;13.60;;;7.70;;
67049;SDS011;53955;52.442;13.284;2022-12-08T10:27:41;13.13;;;7.73;;
67049;SDS011;53955;52.442;13.284;2022-12-08T10:30:09;13.97;;;7.43;;
67049;SDS011;53955;52.442;13.284;2022-12-08T10:32:37;13.77;;;8.30;;
67049;SDS011;53955;52.442;13.284;2022-12-08T10:35:06;13.90;;;8.20;;
67049;SDS011;53955;52.442;13.284;2022-12-08T10:37:36;16.20;;;8.37;;
67049;SDS011;53955;52.442;13.284;2022-12-08T10:40:09;20.73;;;9.60;;
67049;SDS011;53955;52.442;13.284;2022-12-08T10:42:38;14.40;;;8.23;;
67049;SDS011;53955;52.442;13.284;2022-12-08T10:45:15;13.30;;;8.03;;
67049;SDS011;53955;52.442;13.284;2022-12-08T10:47:53;17.87;;;8.53;;
67049;SDS011;53955;52.442;13.284;2022-12-08T10:50:23;17.17;;;8.17;;
67049;SDS011;53955;52.442;13.284;2022-12-08T10:52:56;14.83;;;7.83;;
67049;SDS011;53955;52.442;13.284;2022-12-08T10:55:25;13.20;;;7.23;;
67049;SDS011;53955;52.442;13.284;2022-12-08T10:57:52;12.97;;;7.63;;
67049;SDS011;53955;52.442;13.284;2022-12-08T11:00:20;11.63;;;6.87;;
67049;SDS011;53955;52.442;13.284;2022-12-08T11:02:49;12.53;;;7.33;;
67049;SDS011;53955;52.442;13.284;2022-12-08T11:05:18;13.87;;;7.40;;
67049;SDS011;53955;52.442;13.284;2022-12-08T11:07:46;14.30;;;6.83;;
67049;SDS011;53955;52.442;13.284;2022-12-08T11:10:16;11.00;;;6.73;;
67049;SDS011;53955;52.442;13.284;2022-12-08T11:12:44;14.10;;;7.90;;
67049;SDS011;53955;52.442;13.284;2022-12-08T11:15:13;12.10;;;6.63;;
67049;SDS011;53955;52.442;13.284;2022-12-08T11:17:42;15.57;;;6.73;;
67049;SDS011;53955;52.442;13.284;2022-12-08T11:20:19;11.77;;;7.37;;
67049;SDS011;53955;52.442;13.284;2022-12-08T11:22:49;11.90;;;6.83;;
67049;SDS011;53955;52.442;13.284;2022-12-08T11:25:18;14.33;;;6.93;;
67049;SDS011;53955;52.442;13.284;2022-12-08T11:27:49;13.07;;;7.30;;
67049;SDS011;53955;52.442;13.284;2022-12-08T11:30:18;12.43;;;6.87;;
67049;SDS011;53955;52.442;13.284;2022-12-08T11:32:46;14.87;;;7.77;;
67049;SDS011;53955;52.442;13.284;2022-12-08T11:35:18;12.57;;;6.90;;
67049;SDS011;53955;52.442;13.284;2022-12-08T11:37:48;11.17;;;6.57;;
67049;SDS011;53955;52.442;13.284;2022-12-08T11:40:16;12.30;;;6.70;;
67049;SDS011;53955;52.442;13.284;2022-12-08T11:42:51;14.60;;;6.77;;
67049;SDS011;53955;52.442;13.284;2022-12-08T11:45:23;11.87;;;7.07;;
67049;SDS011;53955;52.442;13.284;2022-12-08T11:47:55;11.80;;;7.10;;
67049;SDS011;53955;52.442;13.284;2022-12-08T11:50:29;13.97;;;7.63;;
67049;SDS011;53955;52.442;13.284;2022-12-08T11:53:02;14.67;;;7.20;;
67049;SDS011;53955;52.442;13.284;2022-12-08T11:55:35;16.27;;;7.17;;
67049;SDS011;53955;52.442;13.284;2022-12-08T11:58:10;13.70;;;7.97;;
67049;SDS011;53955;52.442;13.284;2022-12-08T12:00:41;13.07;;;6.83;;
67049;SDS011;53955;52.442;13.284;2022-12-08T12:03:10;13.43;;;7.20;;
67049;SDS011;53955;52.442;13.284;2022-12-08T12:05:48;14.90;;;6.70;;
67049;SDS011;53955;52.442;13.284;2022-12-08T12:08:28;11.70;;;6.70;;
67049;SDS011;53955;52.442;13.284;2022-12-08T12:11:07;11.23;;;6.40;;
67049;SDS011;53955;52.442;13.284;2022-12-08T12:14:02;12.37;;;7.50;;
67049;SDS011;53955;52.442;13.284;2022-12-08T12:16:41;12.03;;;7.47;;
67049;SDS011;53955;52.442;13.284;2022-12-08T12:19:31;12.47;;;6.73;;
67049;SDS011;53955;52.442;13.284;2022-12-08T12:22:03;12.83;;;7.30;;
67049;SDS011;53955;52.442;13.284;2022-12-08T12:24:38;11.43;;;7.33;;
67049;SDS011;53955;52.442;13.284;2022-12-08T12:27:05;12.37;;;7.43;;
67049;SDS011;53955;52.442;13.284;2022-12-08T12:29:49;12.67;;;6.53;;
67049;SDS011;53955;52.442;13.284;2022-12-08T12:32:20;14.17;;;7.13;;
67049;SDS011;53955;52.442;13.284;2022-12-08T12:34:49;11.63;;;7.07;;
67049;SDS011;53955;52.442;13.284;2022-12-08T12:37:19;12.00;;;7.53;;
67049;SDS011;53955;52.442;13.284;2022-12-08T12:39:49;14.27;;;7.00;;
67049;SDS011;53955;52.442;13.284;2022-12-08T12:42:34;12.73;;;7.33;;
67049;SDS011;53955;52.442;13.284;2022-12-08T12:50:45;17.00;;;8.17;;
67049;SDS011;53955;52.442;13.284;2022-12-08T12:59:20;12.40;;;7.30;;
67049;SDS011;53955;52.442;13.284;2022-12-08T13:01:57;12.87;;;7.20;;
67049;SDS011;53955;52.442;13.284;2022-12-08T13:04:31;16.73;;;8.37;;
67049;SDS011;53955;52.442;13.284;2022-12-08T13:07:00;12.67;;;7.70;;
67049;SDS011;53955;52.442;13.284;2022-12-08T13:09:28;13.83;;;7.73;;
67049;SDS011;53955;52.442;13.284;2022-12-08T13:11:58;15.67;;;7.73;;
67049;SDS011;53955;52.442;13.284;2022-12-08T13:14:28;13.67;;;7.63;;
67049;SDS011;53955;52.442;13.284;2022-12-08T13:16:59;14.63;;;7.60;;
67049;SDS011;53955;52.442;13.284;2022-12-08T13:19:30;14.90;;;7.87;;
67049;SDS011;53955;52.442;13.284;2022-12-08T13:21:58;14.17;;;7.90;;
67049;SDS011;53955;52.442;13.284;2022-12-08T13:24:29;15.03;;;8.40;;
67049;SDS011;53955;52.442;13.284;2022-12-08T13:33:02;12.13;;;7.97;;
67049;SDS011;53955;52.442;13.284;2022-12-08T13:35:30;15.97;;;8.40;;
67049;SDS011;53955;52.442;13.284;2022-12-08T13:37:57;14.30;;;8.53;;
67049;SDS011;53955;52.442;13.284;2022-12-08T13:40:25;12.93;;;7.87;;
67049;SDS011;53955;52.442;13.284;2022-12-08T13:42:56;16.20;;;8.13;;
67049;SDS011;53955;52.442;13.284;2022-12-08T13:45:31;14.67;;;8.53;;
67049;SDS011;53955;52.442;13.284;2022-12-08T13:48:03;14.07;;;8.33;;
67049;SDS011;53955;52.442;13.284;2022-12-08T13:50:38;15.53;;;8.17;;
67049;SDS011;53955;52.442;13.284;2022-12-08T13:53:09;13.47;;;7.70;;
67049;SDS011;53955;52.442;13.284;2022-12-08T13:55:41;15.07;;;8.07;;
67049;SDS011;53955;52.442;13.284;2022-12-08T13:58:16;16.47;;;8.57;;
67049;SDS011;53955;52.442;13.284;2022-12-08T14:00:52;14.10;;;8.30;;
67049;SDS011;53955;52.442;13.284;2022-12-08T14:03:26;19.80;;;9.03;;
67049;SDS011;53955;52.442;13.284;2022-12-08T14:05:53;15.50;;;8.13;;
67049;SDS011;53955;52.442;13.284;2022-12-08T14:08:22;15.07;;;8.40;;
67049;SDS011;53955;52.442;13.284;2022-12-08T14:10:56;15.67;;;9.10;;
67049;SDS011;53955;52.442;13.284;2022-12-08T14:13:26;13.70;;;7.30;;
67049;SDS011;53955;52.442;13.284;2022-12-08T14:15:53;11.53;;;6.97;;
67049;SDS011;53955;52.442;13.284;2022-12-08T14:18:21;11.43;;;7.40;;
67049;SDS011;53955;52.442;13.284;2022-12-08T14:20:59;10.37;;;6.90;;
67049;SDS011;53955;52.442;13.284;2022-12-08T14:23:33;10.57;;;6.20;;
67049;SDS011;53955;52.442;13.284;2022-12-08T14:26:00;9.30;;;5.73;;
67049;SDS011;53955;52.442;13.284;2022-12-08T14:28:28;8.67;;;5.50;;
67049;SDS011;53955;52.442;13.284;2022-12-08T14:30:55;9.40;;;5.63;;
67049;SDS011;53955;52.442;13.284;2022-12-08T14:33:22;8.33;;;5.10;;
67049;SDS011;53955;52.442;13.284;2022-12-08T14:35:51;12.30;;;6.30;;
67049;SDS011;53955;52.442;13.284;2022-12-08T14:38:20;11.03;;;6.00;;
67049;SDS011;53955;52.442;13.284;2022-12-08T14:40:58;11.73;;;5.53;;
67049;SDS011;53955;52.442;13.284;2022-12-08T14:43:26;11.17;;;6.37;;
67049;SDS011;53955;52.442;13.284;2022-12-08T14:45:54;10.97;;;6.07;;
67049;SDS011;53955;52.442;13.284;2022-12-08T14:48:24;10.80;;;6.13;;
67049;SDS011;53955;52.442;13.284;2022-12-08T14:50:59;10.50;;;6.23;;
67049;SDS011;53955;52.442;13.284;2022-12-08T14:53:34;10.60;;;6.27;;
67049;SDS011;53955;52.442;13.284;2022-12-08T14:56:05;12.17;;;6.47;;
67049;SDS011;53955;52.442;13.284;2022-12-08T14:58:33;10.83;;;6.27;;
67049;SDS011;53955;52.442;13.284;2022-12-08T15:01:00;9.23;;;5.77;;